createdAt,value
2018-09-17T00:00:22.453Z,0
2018-09-17T00:01:02.779Z,0
2018-09-17T00:01:43.228Z,0
2018-09-17T00:02:23.622Z,0
2018-09-17T00:03:03.947Z,0
2018-09-17T00:03:44.530Z,0
2018-09-17T00:04:24.802Z,0
2018-09-17T00:05:05.373Z,0
2018-09-17T00:05:45.636Z,0
2018-09-17T00:06:26.044Z,0
2018-09-17T00:07:06.499Z,0
2018-09-17T00:07:46.863Z,0
2018-09-17T00:08:27.237Z,0
2018-09-17T00:09:07.750Z,0
2018-09-17T00:09:48.095Z,0
2018-09-17T00:10:28.518Z,0
2018-09-17T00:11:09.038Z,0
2018-09-17T00:11:49.424Z,0
2018-09-17T00:12:29.738Z,0
2018-09-17T00:13:10.194Z,0
2018-09-17T00:13:50.541Z,0
2018-09-17T00:14:30.990Z,0
2018-09-17T00:15:11.480Z,0
2018-09-17T00:15:51.915Z,0
2018-09-17T00:16:32.338Z,0
2018-09-17T00:17:12.765Z,0
2018-09-17T00:17:53.219Z,0
2018-09-17T00:18:33.493Z,0
2018-09-17T00:19:13.959Z,0
2018-09-17T00:19:54.340Z,0
2018-09-17T00:20:34.680Z,0
2018-09-17T00:21:15.143Z,0
2018-09-17T00:21:55.524Z,0
2018-09-17T00:22:35.904Z,0
2018-09-17T00:23:16.389Z,0
2018-09-17T00:23:56.850Z,0
2018-09-17T00:24:37.115Z,0
2018-09-17T00:25:17.500Z,0
2018-09-17T00:25:58.039Z,0
2018-09-17T00:26:38.334Z,0
2018-09-17T00:27:18.750Z,0
2018-09-17T00:27:59.296Z,0
2018-09-17T00:28:39.631Z,0
2018-09-17T00:29:20.106Z,0
2018-09-17T00:30:00.453Z,0
2018-09-17T00:30:40.841Z,0
2018-09-17T00:31:21.281Z,0
2018-09-17T00:32:01.784Z,0
2018-09-17T00:32:42.182Z,0
2018-09-17T00:33:22.537Z,0
2018-09-17T00:34:02.930Z,0
2018-09-17T00:34:43.349Z,0
2018-09-17T00:35:23.776Z,0
2018-09-17T00:36:04.232Z,0
2018-09-17T00:36:44.494Z,0
2018-09-17T00:37:24.907Z,0
2018-09-17T00:38:05.419Z,0
2018-09-17T00:38:45.734Z,0
2018-09-17T00:39:26.127Z,0
2018-09-17T00:40:06.634Z,0
2018-09-17T00:40:47.007Z,0
2018-09-17T00:41:27.417Z,0
2018-09-17T00:42:07.828Z,0
2018-09-17T00:42:48.227Z,0
2018-09-17T00:43:28.564Z,0
2018-09-17T00:44:09.139Z,0
2018-09-17T00:44:49.415Z,0
2018-09-17T00:45:29.911Z,0
2018-09-17T00:46:10.331Z,0
2018-09-17T00:46:50.776Z,0
2018-09-17T00:47:31.349Z,0
2018-09-17T00:48:11.649Z,0
2018-09-17T00:48:52.068Z,0
2018-09-17T00:49:32.489Z,0
2018-09-17T00:50:12.980Z,0
2018-09-17T00:50:53.366Z,0
2018-09-17T00:51:33.796Z,0
2018-09-17T00:52:14.092Z,0
2018-09-17T00:52:54.659Z,0
2018-09-17T00:53:34.984Z,0
2018-09-17T00:54:15.360Z,0
2018-09-17T00:54:55.756Z,0
2018-09-17T00:55:36.326Z,0
2018-09-17T00:56:16.565Z,0
2018-09-17T00:56:56.995Z,0
2018-09-17T00:57:37.406Z,0
2018-09-17T00:58:17.835Z,0
2018-09-17T00:58:58.211Z,0
2018-09-17T00:59:38.647Z,0
2018-09-17T01:00:19.055Z,0
2018-09-17T01:00:59.415Z,0
2018-09-17T01:01:39.814Z,0
2018-09-17T01:02:20.244Z,0
2018-09-17T01:03:00.601Z,0
2018-09-17T01:03:41.171Z,0
2018-09-17T01:04:21.556Z,0
2018-09-17T01:05:01.971Z,0
2018-09-17T01:05:42.322Z,0
2018-09-17T01:06:22.732Z,0
2018-09-17T01:07:03.113Z,0
2018-09-17T01:07:43.474Z,0
2018-09-17T01:08:23.976Z,0
2018-09-17T01:09:04.380Z,0
2018-09-17T01:09:44.788Z,0
2018-09-17T01:10:25.263Z,0
2018-09-17T01:11:05.546Z,0
2018-09-17T01:11:45.962Z,0
2018-09-17T01:12:26.397Z,0
2018-09-17T01:13:06.797Z,0
2018-09-17T01:13:47.327Z,0
2018-09-17T01:14:27.672Z,0
2018-09-17T01:15:08.060Z,0
2018-09-17T01:15:48.468Z,0
2018-09-17T01:16:29.062Z,0
2018-09-17T01:17:09.450Z,0
2018-09-17T01:17:49.825Z,0
2018-09-17T01:18:31.815Z,0
2018-09-17T01:19:12.285Z,0
2018-09-17T01:19:52.604Z,0
2018-09-17T01:20:32.947Z,0
2018-09-17T01:21:13.414Z,0
2018-09-17T01:21:53.783Z,0
2018-09-17T01:22:34.228Z,0
2018-09-17T01:23:14.540Z,0
2018-09-17T01:23:55.059Z,0
2018-09-17T01:24:35.441Z,0
2018-09-17T01:25:15.898Z,0
2018-09-17T01:25:56.257Z,0
2018-09-17T01:26:36.731Z,0
2018-09-17T01:27:17.142Z,0
2018-09-17T01:27:57.570Z,0
2018-09-17T01:28:38.095Z,0
2018-09-17T01:29:18.479Z,0
2018-09-17T01:29:58.969Z,0
2018-09-17T01:30:39.476Z,0
2018-09-17T01:31:19.776Z,0
2018-09-17T01:32:00.158Z,0
2018-09-17T01:32:40.646Z,0
2018-09-17T01:33:21.124Z,0
2018-09-17T01:34:01.426Z,0
2018-09-17T01:34:41.828Z,0
2018-09-17T01:35:22.235Z,0
2018-09-17T01:36:02.623Z,0
2018-09-17T01:36:43.077Z,0
2018-09-17T01:37:23.548Z,0
2018-09-17T01:38:04.061Z,0
2018-09-17T01:38:44.465Z,0
2018-09-17T01:39:24.828Z,0
2018-09-17T01:40:05.192Z,0
2018-09-17T01:40:45.697Z,0
2018-09-17T01:41:26.050Z,0
2018-09-17T01:42:06.493Z,0
2018-09-17T01:42:46.928Z,0
2018-09-17T01:43:27.269Z,0
2018-09-17T01:44:07.710Z,0
2018-09-17T01:44:48.106Z,0
2018-09-17T01:45:28.510Z,0
2018-09-17T01:46:08.988Z,0
2018-09-17T01:46:49.585Z,0
2018-09-17T01:47:29.956Z,0
2018-09-17T01:48:10.343Z,0
2018-09-17T01:48:50.846Z,0
2018-09-17T01:49:31.142Z,0
2018-09-17T01:50:11.581Z,0
2018-09-17T01:50:52.061Z,0
2018-09-17T01:51:32.477Z,0
2018-09-17T01:52:12.837Z,0
2018-09-17T01:52:53.333Z,0
2018-09-17T01:53:33.702Z,0
2018-09-17T01:54:14.134Z,0
2018-09-17T01:54:54.566Z,0
2018-09-17T01:55:35.084Z,0
2018-09-17T01:56:15.432Z,0
2018-09-17T01:56:55.905Z,0
2018-09-17T01:57:36.129Z,0
2018-09-17T01:58:16.529Z,0
2018-09-17T01:58:57.118Z,0
2018-09-17T01:59:37.482Z,0
2018-09-17T02:00:17.919Z,0
2018-09-17T02:00:58.263Z,0
2018-09-17T02:01:38.674Z,0
2018-09-17T02:02:19.091Z,0
2018-09-17T02:02:59.456Z,0
2018-09-17T02:03:39.948Z,0
2018-09-17T02:04:20.261Z,0
2018-09-17T02:05:00.705Z,0
2018-09-17T02:05:41.781Z,0
2018-09-17T02:06:28.877Z,0
2018-09-17T02:07:09.248Z,0
2018-09-17T02:07:49.723Z,0
2018-09-17T02:08:30.259Z,0
2018-09-17T02:09:10.589Z,0
2018-09-17T02:09:50.873Z,0
2018-09-17T02:10:31.313Z,0
2018-09-17T02:11:11.675Z,0
2018-09-17T02:11:52.100Z,0
2018-09-17T02:12:32.503Z,0
2018-09-17T02:13:12.928Z,0
2018-09-17T02:13:53.392Z,0
2018-09-17T02:14:33.802Z,0
2018-09-17T02:15:14.110Z,0
2018-09-17T02:15:54.485Z,0
2018-09-17T02:16:35.004Z,0
2018-09-17T02:17:15.393Z,0
2018-09-17T02:17:55.765Z,0
2018-09-17T02:18:36.242Z,0
2018-09-17T02:19:16.562Z,0
2018-09-17T02:19:56.982Z,0
2018-09-17T02:20:37.437Z,0
2018-09-17T02:21:17.715Z,0
2018-09-17T02:21:58.179Z,0
2018-09-17T02:22:38.607Z,0
2018-09-17T02:23:19.082Z,0
2018-09-17T02:23:59.454Z,0
2018-09-17T02:24:39.876Z,0
2018-09-17T02:25:20.332Z,0
2018-09-17T02:26:00.721Z,0
2018-09-17T02:26:41.155Z,0
2018-09-17T02:27:21.593Z,0
2018-09-17T02:28:02.005Z,0
2018-09-17T02:28:42.396Z,0
2018-09-17T02:29:22.808Z,0
2018-09-17T02:30:03.155Z,0
2018-09-17T02:30:50.423Z,0
2018-09-17T02:31:30.796Z,0
2018-09-17T02:32:11.159Z,0
2018-09-17T02:32:51.657Z,0
2018-09-17T02:33:32.004Z,0
2018-09-17T02:34:12.420Z,0
2018-09-17T02:34:52.833Z,0
2018-09-17T02:35:33.212Z,0
2018-09-17T02:36:13.558Z,0
2018-09-17T02:36:54.006Z,0
2018-09-17T02:37:34.465Z,0
2018-09-17T02:38:14.893Z,0
2018-09-17T02:38:55.349Z,0
2018-09-17T02:39:35.766Z,0
2018-09-17T02:40:16.228Z,0
2018-09-17T02:40:56.563Z,0
2018-09-17T02:41:37.002Z,0
2018-09-17T02:42:17.475Z,0
2018-09-17T02:42:57.933Z,0
2018-09-17T02:43:38.333Z,0
2018-09-17T02:44:18.664Z,0
2018-09-17T02:44:59.135Z,0
2018-09-17T02:45:39.964Z,0
2018-09-17T02:46:20.687Z,0
2018-09-17T02:47:01.033Z,0
2018-09-17T02:47:41.462Z,0
2018-09-17T02:48:21.807Z,0
2018-09-17T02:49:02.320Z,0
2018-09-17T02:49:42.696Z,0
2018-09-17T02:50:23.074Z,0
2018-09-17T02:51:03.437Z,0
2018-09-17T02:51:43.938Z,0
2018-09-17T02:52:24.473Z,0
2018-09-17T02:53:04.712Z,0
2018-09-17T02:53:45.322Z,0
2018-09-17T02:54:25.621Z,0
2018-09-17T02:55:06.003Z,0
2018-09-17T02:55:46.409Z,0
2018-09-17T02:56:26.799Z,0
2018-09-17T02:57:07.186Z,0
2018-09-17T02:57:47.576Z,0
2018-09-17T02:58:27.995Z,0
2018-09-17T02:59:08.347Z,0
2018-09-17T02:59:48.760Z,0
2018-09-17T03:00:29.155Z,0
2018-09-17T03:01:09.601Z,0
2018-09-17T03:01:49.910Z,0
2018-09-17T03:02:30.396Z,0
2018-09-17T03:03:10.792Z,0
2018-09-17T03:03:51.308Z,0
2018-09-17T03:04:31.724Z,0
2018-09-17T03:05:12.014Z,0
2018-09-17T03:05:52.450Z,0
2018-09-17T03:06:32.918Z,0
2018-09-17T03:07:13.308Z,0
2018-09-17T03:07:53.653Z,0
2018-09-17T03:08:34.158Z,0
2018-09-17T03:09:14.600Z,0
2018-09-17T03:09:55.097Z,0
2018-09-17T03:10:35.509Z,0
2018-09-17T03:11:15.931Z,0
2018-09-17T03:11:56.278Z,0
2018-09-17T03:12:36.665Z,0
2018-09-17T03:13:17.069Z,0
2018-09-17T03:13:57.591Z,0
2018-09-17T03:14:37.894Z,0
2018-09-17T03:15:18.313Z,0
2018-09-17T03:15:58.735Z,0
2018-09-17T03:16:39.084Z,0
2018-09-17T03:17:19.566Z,0
2018-09-17T03:18:00.046Z,0
2018-09-17T03:18:40.499Z,0
2018-09-17T03:19:20.903Z,0
2018-09-17T03:20:01.341Z,0
2018-09-17T03:20:41.759Z,0
2018-09-17T03:21:22.232Z,0
2018-09-17T03:22:02.614Z,0
2018-09-17T03:22:42.968Z,0
2018-09-17T03:23:23.481Z,0
2018-09-17T03:24:03.799Z,0
2018-09-17T03:24:44.352Z,0
2018-09-17T03:25:24.634Z,0
2018-09-17T03:26:05.156Z,0
2018-09-17T03:26:45.635Z,0
2018-09-17T03:27:26.039Z,0
2018-09-17T03:28:06.546Z,0
2018-09-17T03:28:47.022Z,0
2018-09-17T03:29:27.397Z,0
2018-09-17T03:30:07.854Z,0
2018-09-17T03:30:48.196Z,0
2018-09-17T03:31:28.746Z,0
2018-09-17T03:32:09.070Z,0
2018-09-17T03:32:49.470Z,0
2018-09-17T03:33:29.931Z,0
2018-09-17T03:34:10.237Z,0
2018-09-17T03:34:50.819Z,0
2018-09-17T03:35:31.127Z,0
2018-09-17T03:36:11.579Z,0
2018-09-17T03:36:51.993Z,0
2018-09-17T03:37:32.327Z,0
2018-09-17T03:38:12.793Z,0
2018-09-17T03:38:53.220Z,0
2018-09-17T03:39:33.572Z,0
2018-09-17T03:40:14.025Z,0
2018-09-17T03:40:54.468Z,0
2018-09-17T03:41:34.879Z,0
2018-09-17T03:42:15.334Z,0
2018-09-17T03:42:55.812Z,0
2018-09-17T03:43:36.103Z,0
2018-09-17T03:44:16.533Z,0
2018-09-17T03:44:56.998Z,0
2018-09-17T03:45:37.288Z,0
2018-09-17T03:46:17.800Z,0
2018-09-17T03:46:58.178Z,0
2018-09-17T03:47:38.555Z,0
2018-09-17T03:48:18.955Z,0
2018-09-17T03:48:59.341Z,0
2018-09-17T03:49:39.797Z,0
2018-09-17T03:50:20.209Z,0
2018-09-17T03:51:00.644Z,0
2018-09-17T03:51:40.958Z,0
2018-09-17T03:52:21.406Z,0
2018-09-17T03:53:01.854Z,0
2018-09-17T03:53:42.178Z,0
2018-09-17T03:54:22.609Z,0
2018-09-17T03:55:03.033Z,0
2018-09-17T03:55:43.418Z,0
2018-09-17T03:56:23.870Z,0
2018-09-17T03:57:04.215Z,0
2018-09-17T03:57:44.646Z,0
2018-09-17T03:58:25.056Z,0
2018-09-17T03:59:05.487Z,0
2018-09-17T03:59:45.785Z,0
2018-09-17T04:00:26.190Z,0
2018-09-17T04:01:06.607Z,0
2018-09-17T04:01:46.958Z,0
2018-09-17T04:02:27.461Z,0
2018-09-17T04:03:07.779Z,0
2018-09-17T04:03:48.270Z,0
2018-09-17T04:04:28.548Z,0
2018-09-17T04:05:23.774Z,0
2018-09-17T04:06:04.207Z,0
2018-09-17T04:06:44.676Z,0
2018-09-17T04:07:25.069Z,0
2018-09-17T04:08:05.508Z,0
2018-09-17T04:08:45.872Z,0
2018-09-17T04:09:26.281Z,0
2018-09-17T04:10:06.675Z,0
2018-09-17T04:12:20.842Z,0
2018-09-17T04:13:01.265Z,0
2018-09-17T04:13:41.679Z,0
2018-09-17T04:14:22.166Z,0
2018-09-17T04:15:02.745Z,0
2018-09-17T04:15:43.196Z,0
2018-09-17T04:16:23.979Z,0
2018-09-17T04:17:04.462Z,0
2018-09-17T04:17:44.892Z,0
2018-09-17T04:18:25.189Z,0
2018-09-17T04:19:05.637Z,0
2018-09-17T04:19:46.104Z,0
2018-09-17T04:20:26.444Z,0
2018-09-17T04:21:06.945Z,0
2018-09-17T04:21:47.206Z,0
2018-09-17T04:22:27.689Z,0
2018-09-17T04:23:08.105Z,0
2018-09-17T04:23:48.486Z,0
2018-09-17T04:24:29.058Z,0
2018-09-17T04:25:09.422Z,0
2018-09-17T04:25:49.868Z,0
2018-09-17T04:26:30.226Z,0
2018-09-17T04:27:10.679Z,0
2018-09-17T05:06:57.985Z,5
2018-09-17T05:07:58.944Z,5
2018-09-17T05:08:52.512Z,5
2018-09-17T05:09:52.147Z,5
2018-09-17T05:10:44.568Z,5
2018-09-17T05:11:36.796Z,5
2018-09-17T05:12:30.160Z,5
2018-09-17T05:13:23.911Z,5
2018-09-17T05:14:16.743Z,5
2018-09-17T05:15:10.126Z,5
2018-09-17T05:17:21.139Z,10
2018-09-17T05:18:28.912Z,15
2018-09-17T05:19:31.673Z,20
2018-09-17T05:37:23.624Z,40
2018-09-17T05:38:27.889Z,40
2018-09-17T05:52:04.138Z,70
2018-09-17T05:52:56.574Z,75
2018-09-17T06:14:41.980Z,295
2018-09-17T06:15:37.871Z,305
2018-09-17T06:18:14.512Z,300
2018-09-17T06:19:00.726Z,305
2018-09-17T06:19:41.610Z,310
2018-09-17T06:20:22.153Z,320
2018-09-17T06:21:02.932Z,330
2018-09-17T06:21:44.203Z,340
2018-09-17T06:22:24.439Z,335
2018-09-17T06:23:05.221Z,330
2018-09-17T06:23:45.822Z,340
2018-09-17T06:24:26.401Z,360
2018-09-17T06:25:06.990Z,400
2018-09-17T06:25:50.378Z,420
2018-09-17T06:26:30.598Z,430
2018-09-17T06:27:11.465Z,440
2018-09-17T06:27:52.373Z,450
2018-09-17T06:28:33.282Z,470
2018-09-17T06:29:13.712Z,485
2018-09-17T06:29:54.670Z,500
2018-09-17T06:30:35.342Z,520
2018-09-17T06:31:17.508Z,510
2018-09-17T06:32:01.097Z,520
2018-09-17T06:32:41.571Z,545
2018-09-17T06:33:22.762Z,555
2018-09-17T06:34:03.258Z,555
2018-09-17T06:34:43.659Z,580
2018-09-17T06:35:24.122Z,610
2018-09-17T06:36:04.622Z,615
2018-09-17T06:36:45.057Z,610
2018-09-17T06:37:25.543Z,610
2018-09-17T06:38:08.863Z,610
2018-09-17T06:52:26.547Z,220
2018-09-17T06:53:06.819Z,220
2018-09-17T06:53:47.376Z,220
2018-09-17T06:54:27.941Z,220
2018-09-17T06:55:08.433Z,220
2018-09-17T06:55:48.986Z,225
2018-09-17T06:56:29.396Z,225
2018-09-17T06:57:09.803Z,225
2018-09-17T06:57:50.247Z,230
2018-09-17T06:58:30.986Z,230
2018-09-17T07:01:35.731Z,220
2018-09-17T07:02:15.961Z,215
2018-09-17T07:02:56.670Z,215
2018-09-17T07:03:37.223Z,215
2018-09-17T07:04:18.066Z,215
2018-09-17T07:04:58.540Z,215
2018-09-17T07:05:38.967Z,215
2018-09-17T07:06:19.601Z,210
2018-09-17T07:07:00.054Z,200
2018-09-17T07:07:40.467Z,190
2018-09-17T07:08:20.961Z,180
2018-09-17T07:09:01.597Z,185
2018-09-17T07:09:42.031Z,195
2018-09-17T07:10:22.513Z,205
2018-09-17T07:11:03.604Z,215
2018-09-17T07:11:45.420Z,215
2018-09-17T07:12:25.044Z,210
2018-09-17T07:13:06.491Z,210
2018-09-17T07:13:47.694Z,205
2018-09-17T07:14:28.860Z,200
2018-09-17T07:15:09.401Z,195
2018-09-17T07:15:50.266Z,195
2018-09-17T07:16:32.605Z,190
2018-09-17T07:17:13.457Z,185
2018-09-17T07:17:53.537Z,185
2018-09-17T07:18:34.609Z,180
2018-09-17T07:19:15.268Z,185
2018-09-17T07:19:56.952Z,185
2018-09-17T07:20:38.123Z,180
2018-09-17T07:23:14.175Z,170
2018-09-17T07:26:00.271Z,140
2018-09-17T07:29:15.158Z,130
2018-09-17T07:32:49.779Z,125
2018-09-17T07:33:55.217Z,120
2018-09-17T07:34:51.971Z,120
2018-09-17T07:35:48.821Z,115
2018-09-17T07:36:43.863Z,115
2018-09-17T07:37:38.897Z,115
2018-09-17T07:38:34.978Z,110
2018-09-17T07:39:35.592Z,110
2018-09-17T07:40:27.849Z,110
2018-09-17T07:41:21.793Z,105
2018-09-17T07:42:14.798Z,105
2018-09-17T07:43:13.549Z,105
2018-09-17T07:44:17.223Z,100
2018-09-17T07:47:20.405Z,100
2018-09-17T07:48:16.450Z,100
2018-09-17T07:49:11.236Z,95
2018-09-17T07:50:06.498Z,95
2018-09-17T07:53:41.649Z,90
2018-09-17T07:54:22.507Z,90
2018-09-17T07:55:04.112Z,85
2018-09-17T07:55:45.138Z,85
2018-09-17T07:56:25.386Z,85
2018-09-17T07:57:06.792Z,85
2018-09-17T07:59:54.927Z,80
2018-09-17T08:00:50.160Z,80
2018-09-17T08:01:54.636Z,80
2018-09-17T08:03:01.622Z,75
2018-09-17T08:03:54.696Z,75
2018-09-17T08:04:55.054Z,80
2018-09-17T08:05:55.961Z,80
2018-09-17T08:06:51.882Z,80
2018-09-17T08:07:46.396Z,80
2018-09-17T08:08:40.258Z,80
2018-09-17T08:09:36.782Z,80
2018-09-17T08:10:29.930Z,85
2018-09-17T08:11:23.585Z,85
2018-09-17T08:12:18.840Z,85
2018-09-17T08:13:11.684Z,80
2018-09-17T08:14:10.845Z,80
2018-09-17T08:15:02.988Z,80
2018-09-17T08:16:02.840Z,85
2018-09-17T08:16:56.368Z,80
2018-09-17T08:20:52.550Z,80
2018-09-17T08:21:47.155Z,75
2018-09-17T08:22:43.393Z,80
2018-09-17T08:23:46.400Z,75
2018-09-17T08:24:39.434Z,80
2018-09-17T08:25:39.257Z,80
2018-09-17T08:26:33.892Z,80
2018-09-17T08:27:27.734Z,80
2018-09-17T08:28:22.279Z,80
2018-09-17T08:31:58.060Z,80
2018-09-17T08:32:57.348Z,80
2018-09-17T08:33:52.975Z,80
2018-09-17T08:34:48.209Z,80
2018-09-17T08:35:42.628Z,80
2018-09-17T08:36:35.779Z,80
2018-09-17T08:37:29.159Z,80
2018-09-17T08:38:22.869Z,80
2018-09-17T08:39:15.745Z,80
2018-09-17T08:40:10.514Z,80
2018-09-17T08:41:05.394Z,75
2018-09-17T08:42:01.816Z,75
2018-09-17T08:42:59.017Z,75
2018-09-17T08:43:58.502Z,75
2018-09-17T08:44:59.657Z,75
2018-09-17T08:45:59.308Z,75
2018-09-17T08:46:58.299Z,70
2018-09-17T08:48:07.136Z,75
2018-09-17T08:49:06.628Z,70
2018-09-17T08:55:50.992Z,75
2018-09-17T08:56:32.590Z,75
2018-09-17T08:57:13.712Z,80
2018-09-17T08:57:54.397Z,80
2018-09-17T08:58:34.949Z,80
2018-09-17T08:59:15.451Z,80
2018-09-17T08:59:56.273Z,80
2018-09-17T09:00:51.777Z,80
2018-09-17T09:01:34.738Z,85
2018-09-17T09:02:14.489Z,85
2018-09-17T09:02:55.303Z,85
2018-09-17T09:03:36.174Z,85
2018-09-17T09:04:16.792Z,80
2018-09-17T09:04:58.256Z,80
2018-09-17T09:05:39.781Z,80
2018-09-17T09:06:20.540Z,75
2018-09-17T09:07:01.126Z,75
2018-09-17T09:07:42.014Z,75
2018-09-17T09:08:22.827Z,75
2018-09-17T09:09:03.364Z,75
2018-09-17T09:09:43.945Z,75
2018-09-17T09:10:24.625Z,75
2018-09-17T09:11:05.242Z,75
2018-09-17T09:11:45.803Z,75
2018-09-17T09:12:27.471Z,75
2018-09-17T09:13:09.123Z,75
2018-09-17T09:13:51.527Z,75
2018-09-17T09:14:31.880Z,75
2018-09-17T09:15:15.593Z,75
2018-09-17T09:15:57.101Z,75
2018-09-17T09:16:39.181Z,75
2018-09-17T09:17:19.723Z,75
2018-09-17T09:18:00.978Z,75
2018-09-17T09:18:41.640Z,75
2018-09-17T09:19:22.685Z,75
2018-09-17T09:20:10.041Z,75
2018-09-17T09:20:50.512Z,75
2018-09-17T09:21:32.469Z,75
2018-09-17T09:22:15.530Z,75
2018-09-17T09:22:56.241Z,70
2018-09-17T09:23:37.718Z,75
2018-09-17T09:24:19.110Z,70
2018-09-17T09:25:01.016Z,70
2018-09-17T09:25:42.306Z,70
2018-09-17T09:26:22.583Z,70
2018-09-17T09:27:03.934Z,70
2018-09-17T09:28:31.894Z,70
2018-09-17T09:29:13.535Z,70
2018-09-17T09:29:55.063Z,70
2018-09-17T09:30:36.466Z,70
2018-09-17T09:31:17.241Z,75
2018-09-17T09:31:58.843Z,75
2018-09-17T09:32:39.505Z,75
2018-09-17T09:33:25.049Z,75
2018-09-17T09:38:14.293Z,75
2018-09-17T09:39:25.456Z,75
2018-09-17T09:40:32.419Z,75
2018-09-17T09:41:34.197Z,75
2018-09-17T09:42:40.917Z,75
2018-09-17T09:44:04.977Z,75
2018-09-17T09:45:44.062Z,75
2018-09-17T09:46:57.109Z,75
2018-09-17T09:47:58.779Z,75
2018-09-17T09:49:00.224Z,80
2018-09-17T10:02:34.844Z,70
2018-09-17T10:03:34.354Z,70
2018-09-17T10:04:33.906Z,65
2018-09-17T10:07:57.457Z,65
2018-09-17T10:09:02.207Z,65
2018-09-17T10:10:10.539Z,60
2018-09-17T10:19:14.346Z,65
2018-09-17T10:19:57.820Z,65
2018-09-17T10:20:38.440Z,65
2018-09-17T10:21:18.996Z,65
2018-09-17T10:21:59.703Z,70
2018-09-17T10:22:41.401Z,65
2018-09-17T10:23:21.178Z,65
2018-09-17T10:24:03.601Z,70
2018-09-17T10:24:44.291Z,70
2018-09-17T10:25:25.421Z,70
2018-09-17T10:26:05.545Z,70
2018-09-17T10:26:46.302Z,70
2018-09-17T10:27:27.121Z,70
2018-09-17T10:28:22.674Z,65
2018-09-17T11:11:08.624Z,65
2018-09-17T11:12:04.496Z,65
2018-09-17T11:13:23.186Z,65
2018-09-17T11:14:17.434Z,65
2018-09-17T11:15:14.432Z,65
2018-09-17T11:16:07.895Z,65
2018-09-17T11:17:01.057Z,65
2018-09-17T11:18:12.488Z,65
2018-09-17T11:19:11.885Z,65
2018-09-17T11:48:19.783Z,60
2018-09-17T11:50:55.126Z,60
2018-09-17T11:51:47.829Z,60
2018-09-17T11:52:43.140Z,60
2018-09-17T11:53:40.307Z,60
2018-09-17T11:54:33.269Z,60
2018-09-17T11:55:46.209Z,60
2018-09-17T11:56:45.166Z,60
2018-09-17T11:57:48.923Z,60
2018-09-17T11:58:45.854Z,60
2018-09-17T11:59:48.298Z,60
2018-09-17T12:01:08.415Z,60
2018-09-17T12:02:09.615Z,60
2018-09-17T12:05:04.754Z,60
2018-09-17T12:06:00.642Z,60
2018-09-17T12:07:06.930Z,60
2018-09-17T12:07:59.691Z,60
2018-09-17T12:08:52.331Z,60
2018-09-17T12:09:46.337Z,60
2018-09-17T12:10:40.039Z,60
2018-09-17T12:11:33.602Z,60
2018-09-17T12:12:26.510Z,60
2018-09-17T12:13:19.933Z,60
2018-09-17T12:14:12.536Z,60
2018-09-17T12:15:05.647Z,55
2018-09-17T12:15:58.028Z,55
2018-09-17T12:16:51.796Z,55
2018-09-17T12:17:46.078Z,55
2018-09-17T12:18:39.029Z,55
2018-09-17T12:19:35.051Z,55
2018-09-17T12:20:28.847Z,55
2018-09-17T12:23:04.492Z,55
2018-09-17T12:23:58.245Z,55
2018-09-17T12:24:50.940Z,55
2018-09-17T12:27:19.442Z,55
2018-09-17T12:28:11.917Z,55
2018-09-17T12:29:05.635Z,55
2018-09-17T12:29:59.438Z,55
2018-09-17T12:30:54.416Z,60
2018-09-17T12:31:51.611Z,60
2018-09-17T12:32:52.542Z,60
2018-09-17T12:33:55.112Z,60
2018-09-17T12:34:47.488Z,60
2018-09-17T12:35:46.035Z,60
2018-09-17T12:36:52.874Z,60
2018-09-17T12:37:45.374Z,60
2018-09-17T12:38:44.043Z,60
2018-09-17T12:39:37.168Z,60
2018-09-17T17:23:36.708Z,5
2018-09-17T17:24:20.850Z,5
2018-09-17T17:25:03.087Z,5
2018-09-17T17:25:43.825Z,5
2018-09-17T17:26:25.566Z,0
2018-09-17T17:27:05.979Z,0
2018-09-17T17:27:46.400Z,0
2018-09-17T17:28:29.050Z,0
2018-09-17T17:29:09.342Z,0
2018-09-17T17:29:52.702Z,0
2018-09-17T17:30:31.306Z,0
2018-09-17T17:31:11.934Z,0
2018-09-17T17:31:52.215Z,0
2018-09-17T17:32:33.575Z,0
2018-09-17T17:33:14.372Z,0
2018-09-17T17:33:56.412Z,0
2018-09-17T17:34:38.001Z,0
2018-09-17T17:35:19.226Z,0
2018-09-17T17:36:00.648Z,0
2018-09-17T17:36:41.991Z,0
2018-09-17T17:37:22.345Z,0
2018-09-17T17:38:03.511Z,0
2018-09-17T17:38:43.939Z,0
2018-09-17T17:39:24.424Z,0
2018-09-17T17:40:04.960Z,0
2018-09-17T17:40:45.423Z,0
2018-09-17T17:41:25.681Z,0
2018-09-17T17:42:06.253Z,0
2018-09-17T17:42:46.562Z,0
2018-09-17T17:43:26.924Z,0
2018-09-17T17:44:09.162Z,0
2018-09-17T17:44:49.153Z,0
2018-09-17T17:45:29.698Z,0
2018-09-17T17:46:10.178Z,0
2018-09-17T17:46:50.499Z,0
2018-09-17T17:47:30.887Z,0
2018-09-17T17:48:11.378Z,0
2018-09-17T17:48:51.802Z,0
2018-09-17T17:49:32.107Z,0
2018-09-17T17:50:12.586Z,0
2018-09-17T17:50:53.335Z,0
2018-09-17T17:51:33.718Z,0
2018-09-17T17:52:14.204Z,0
2018-09-17T17:52:54.527Z,0
2018-09-17T17:53:34.976Z,0
2018-09-17T17:54:15.349Z,0
2018-09-17T17:54:55.762Z,0
2018-09-17T17:55:36.134Z,0
2018-09-17T17:56:16.537Z,0
2018-09-17T17:56:56.954Z,0
2018-09-17T17:57:37.417Z,0
2018-09-17T17:58:17.916Z,0
2018-09-17T17:58:58.211Z,0
2018-09-17T17:59:38.599Z,0
2018-09-17T18:00:18.997Z,0
2018-09-17T18:00:59.462Z,0
2018-09-17T18:01:39.846Z,0
2018-09-17T18:06:42.988Z,0
2018-09-17T18:07:23.285Z,0
2018-09-17T18:08:03.740Z,0
2018-09-17T18:08:44.138Z,0
2018-09-17T18:09:24.682Z,0
2018-09-17T18:10:05.142Z,0
2018-09-17T18:10:45.428Z,0
2018-09-17T18:11:26.326Z,0
2018-09-17T18:12:06.695Z,0
2018-09-17T18:12:47.110Z,0
2018-09-17T18:13:27.507Z,0
2018-09-17T18:14:07.927Z,0
2018-09-17T18:14:48.393Z,0
2018-09-17T18:15:28.766Z,0
2018-09-17T18:16:09.263Z,0
2018-09-17T18:16:51.314Z,0
2018-09-17T18:17:31.690Z,0
2018-09-17T18:18:12.178Z,0
2018-09-17T18:18:52.563Z,0
2018-09-17T18:19:32.995Z,0
2018-09-17T18:20:13.408Z,0
2018-09-17T18:20:53.977Z,0
2018-09-17T18:21:34.282Z,0
2018-09-17T18:22:14.667Z,0
2018-09-17T18:22:55.139Z,0
2018-09-17T18:23:35.497Z,0
2018-09-17T18:24:15.964Z,0
2018-09-17T19:01:46.119Z,0
2018-09-17T19:02:26.247Z,0
2018-09-17T19:03:06.731Z,0
2018-09-17T19:03:47.136Z,0
2018-09-17T19:04:27.505Z,0
2018-09-17T19:05:07.929Z,0
2018-09-17T19:05:48.394Z,0
2018-09-17T19:06:30.036Z,0
2018-09-17T19:07:10.415Z,0
2018-09-17T19:07:50.782Z,0
2018-09-17T19:08:31.289Z,0
2018-09-17T19:09:11.611Z,0
2018-09-17T19:09:52.016Z,0
2018-09-17T19:10:33.190Z,0
2018-09-17T19:11:13.558Z,0
2018-09-17T19:11:54.066Z,0
2018-09-17T19:12:34.411Z,0
2018-09-17T19:13:15.115Z,0
2018-09-17T19:13:55.457Z,0
2018-09-17T19:14:35.863Z,0
2018-09-17T19:15:16.356Z,0
2018-09-17T19:15:56.694Z,0
2018-09-17T19:16:37.111Z,0
2018-09-17T19:17:17.544Z,0
2018-09-17T19:17:58.003Z,0
2018-09-17T19:18:38.352Z,0
2018-09-17T19:19:18.779Z,0
2018-09-17T19:19:59.272Z,0
2018-09-17T19:20:39.837Z,0
2018-09-17T19:21:20.082Z,0
2018-09-17T19:22:00.800Z,0
2018-09-17T19:22:40.955Z,0
2018-09-17T19:23:21.284Z,0
2018-09-17T19:24:01.725Z,0
2018-09-17T19:24:42.107Z,0
2018-09-17T19:25:22.523Z,0
2018-09-17T19:26:02.929Z,0
2018-09-17T19:26:43.341Z,0
2018-09-17T19:27:23.820Z,0
2018-09-17T19:28:04.211Z,0
2018-09-17T19:28:44.624Z,0
2018-09-17T19:29:25.017Z,0
2018-09-17T19:30:05.503Z,0
2018-09-17T19:30:45.816Z,0
2018-09-17T19:31:26.252Z,0
2018-09-17T19:32:06.735Z,0
2018-09-17T19:32:47.040Z,0
2018-09-17T19:33:27.556Z,0
2018-09-17T19:34:07.921Z,0
2018-09-17T19:34:48.247Z,0
2018-09-17T19:35:28.670Z,0
2018-09-17T19:36:09.143Z,0
2018-09-17T19:36:49.533Z,0
2018-09-17T19:37:29.888Z,0
2018-09-17T19:38:10.311Z,0
2018-09-17T19:38:50.756Z,0
2018-09-17T19:39:31.087Z,0
2018-09-17T19:40:11.531Z,0
2018-09-17T19:40:51.881Z,0
2018-09-17T19:41:32.307Z,0
2018-09-17T19:42:12.867Z,0
2018-09-17T19:42:53.109Z,0
2018-09-17T19:43:33.575Z,0
2018-09-17T19:44:14.429Z,0
2018-09-17T19:44:54.465Z,0
2018-09-17T19:45:34.866Z,0
2018-09-17T19:46:15.362Z,0
2018-09-17T19:46:55.721Z,0
2018-09-17T19:47:36.509Z,0
2018-09-17T19:48:17.101Z,0
2018-09-17T19:48:57.303Z,0
2018-09-17T19:49:37.843Z,0
2018-09-17T19:50:18.279Z,0
2018-09-17T19:50:58.661Z,0
2018-09-17T19:51:39.031Z,0
2018-09-17T19:52:19.430Z,0
2018-09-17T19:52:59.898Z,0
2018-09-17T19:53:41.409Z,0
2018-09-17T19:54:21.986Z,0
2018-09-17T19:55:02.327Z,0
2018-09-17T19:55:42.800Z,0
2018-09-17T19:56:23.489Z,0
2018-09-17T19:57:03.639Z,0
2018-09-17T19:57:44.074Z,0
2018-09-17T19:58:24.511Z,0
2018-09-17T19:59:04.879Z,0
2018-09-17T19:59:45.323Z,0
2018-09-17T20:00:25.801Z,0
2018-09-17T20:01:06.201Z,0
2018-09-17T20:01:46.617Z,0
2018-09-17T20:02:28.341Z,0
2018-09-17T20:03:08.985Z,0
2018-09-17T20:03:49.392Z,0
2018-09-17T20:04:29.827Z,0